BGB36 KMWH-KPSC
Flight info
| Callsign | BGB36 |
|---|---|
| Flight time | 0h 26m |
| Altitude | VFR |
| Route | VFR FF |
| Aircraft | BE36/L-VGD/C |
Departure
| Time | 2026-05-05 01:16 |
|---|---|
| Airport | Grant County International Airport (KMWH) |
Arrival
| Time | 2026-05-05 01:43 |
|---|---|
| Airport | Tri Cities Airport (KPSC) |
| Time | Latitude | Longitude | Altitude | Speed | Heading |
|---|---|---|---|---|---|
| 2026-05-05 01:12 | 47.19162 | -119.32157 | 1168 ft | 13 kts | 88° |
| 2026-05-05 01:13 | 47.19164 | -119.32007 | 1168 ft | 14 kts | 91° |
| 2026-05-05 01:13 | 47.19163 | -119.31863 | 1167 ft | 14 kts | 89° |
| 2026-05-05 01:13 | 47.19165 | -119.31687 | 1167 ft | 17 kts | 90° |
| 2026-05-05 01:13 | 47.19164 | -119.31529 | 1167 ft | 14 kts | 89° |
| 2026-05-05 01:14 | 47.19165 | -119.31391 | 1167 ft | 17 kts | 90° |
| 2026-05-05 01:14 | 47.19160 | -119.31236 | 1166 ft | 13 kts | 90° |
| 2026-05-05 01:14 | 47.19159 | -119.31180 | 1167 ft | 0 kts | 90° |
| 2026-05-05 01:15 | 47.19181 | -119.31105 | 1167 ft | 12 kts | 41° |
| 2026-05-05 01:15 | 47.19237 | -119.31083 | 1166 ft | 0 kts | 343° |
| 2026-05-05 01:15 | 47.19322 | -119.31120 | 1166 ft | 45 kts | 343° |
| 2026-05-05 01:15 | 47.19771 | -119.31330 | 1202 ft | 80 kts | 346° |
| 2026-05-05 01:16 | 47.20316 | -119.31596 | 1462 ft | 78 kts | 343° |
| 2026-05-05 01:16 | 47.20816 | -119.31865 | 1650 ft | 79 kts | 346° |
| 2026-05-05 01:16 | 47.21325 | -119.32085 | 1971 ft | 67 kts | 348° |
| 2026-05-05 01:16 | 47.21766 | -119.32402 | 2081 ft | 75 kts | 341° |
| 2026-05-05 01:17 | 47.22242 | -119.32622 | 2246 ft | 71 kts | 15° |
| 2026-05-05 01:17 | 47.22453 | -119.31898 | 2216 ft | 102 kts | 95° |
| 2026-05-05 01:17 | 47.21900 | -119.31182 | 2287 ft | 114 kts | 159° |
| 2026-05-05 01:17 | 47.21179 | -119.30786 | 2416 ft | 108 kts | 154° |
| 2026-05-05 01:18 | 47.20485 | -119.30421 | 2542 ft | 106 kts | 155° |
| 2026-05-05 01:18 | 47.19779 | -119.29990 | 2696 ft | 113 kts | 152° |
| 2026-05-05 01:18 | 47.19092 | -119.29617 | 2974 ft | 93 kts | 153° |
| 2026-05-05 01:18 | 47.18472 | -119.29265 | 3016 ft | 102 kts | 153° |
| 2026-05-05 01:19 | 47.17748 | -119.28854 | 3033 ft | 121 kts | 155° |
| 2026-05-05 01:19 | 47.16937 | -119.28358 | 3084 ft | 131 kts | 155° |
| 2026-05-05 01:19 | 47.16045 | -119.28080 | 3268 ft | 127 kts | 171° |
| 2026-05-05 01:19 | 47.15200 | -119.27880 | 3527 ft | 120 kts | 168° |
| 2026-05-05 01:20 | 47.14413 | -119.27698 | 3808 ft | 110 kts | 170° |
| 2026-05-05 01:20 | 47.13683 | -119.27545 | 4069 ft | 102 kts | 171° |
| 2026-05-05 01:20 | 47.12950 | -119.27390 | 4189 ft | 111 kts | 169° |
| 2026-05-05 01:20 | 47.12171 | -119.27226 | 4318 ft | 115 kts | 169° |
| 2026-05-05 01:21 | 47.11355 | -119.27057 | 4443 ft | 119 kts | 175° |
| 2026-05-05 01:21 | 47.10521 | -119.27143 | 4538 ft | 121 kts | 183° |
| 2026-05-05 01:21 | 47.09667 | -119.27236 | 4669 ft | 125 kts | 182° |
| 2026-05-05 01:21 | 47.08793 | -119.27320 | 4822 ft | 126 kts | 183° |
| 2026-05-05 01:22 | 47.07927 | -119.27403 | 5003 ft | 124 kts | 183° |
| 2026-05-05 01:22 | 47.07072 | -119.27488 | 5168 ft | 122 kts | 183° |
| 2026-05-05 01:22 | 47.06238 | -119.27568 | 5334 ft | 119 kts | 183° |
| 2026-05-05 01:22 | 47.05410 | -119.27650 | 5458 ft | 121 kts | 182° |
| 2026-05-05 01:23 | 47.04539 | -119.27738 | 5464 ft | 130 kts | 183° |
| 2026-05-05 01:23 | 47.03619 | -119.27833 | 5474 ft | 136 kts | 183° |
| 2026-05-05 01:23 | 47.02654 | -119.27923 | 5471 ft | 143 kts | 183° |
| 2026-05-05 01:23 | 47.01628 | -119.28027 | 5475 ft | 156 kts | 184° |
| 2026-05-05 01:24 | 47.00485 | -119.28133 | 5465 ft | 172 kts | 181° |
| 2026-05-05 01:24 | 46.99267 | -119.27963 | 5466 ft | 179 kts | 168° |
| 2026-05-05 01:24 | 46.98026 | -119.27640 | 5462 ft | 184 kts | 169° |
| 2026-05-05 01:24 | 46.96756 | -119.27321 | 5465 ft | 187 kts | 169° |
| 2026-05-05 01:25 | 46.95469 | -119.26997 | 5464 ft | 189 kts | 169° |
| 2026-05-05 01:25 | 46.94168 | -119.26667 | 5462 ft | 190 kts | 169° |
| 2026-05-05 01:25 | 46.92861 | -119.26336 | 5463 ft | 191 kts | 169° |
| 2026-05-05 01:25 | 46.91559 | -119.26007 | 5464 ft | 189 kts | 169° |
| 2026-05-05 01:26 | 46.90263 | -119.25679 | 5466 ft | 188 kts | 169° |
| 2026-05-05 01:26 | 46.88971 | -119.25353 | 5463 ft | 188 kts | 169° |
| 2026-05-05 01:26 | 46.87680 | -119.25036 | 5463 ft | 188 kts | 169° |
| 2026-05-05 01:26 | 46.86394 | -119.24723 | 5463 ft | 187 kts | 169° |
| 2026-05-05 01:27 | 46.85110 | -119.24413 | 5467 ft | 187 kts | 170° |
| 2026-05-05 01:27 | 46.83824 | -119.24123 | 5465 ft | 187 kts | 170° |
| 2026-05-05 01:27 | 46.82536 | -119.23838 | 5467 ft | 188 kts | 170° |
| 2026-05-05 01:27 | 46.81242 | -119.23553 | 5468 ft | 188 kts | 170° |
| 2026-05-05 01:28 | 46.79931 | -119.23254 | 5468 ft | 188 kts | 170° |
| 2026-05-05 01:28 | 46.78651 | -119.22963 | 5458 ft | 189 kts | 170° |
| 2026-05-05 01:28 | 46.77331 | -119.22693 | 5454 ft | 189 kts | 172° |
| 2026-05-05 01:28 | 46.76024 | -119.22446 | 5462 ft | 190 kts | 172° |
| 2026-05-05 01:29 | 46.74713 | -119.22200 | 5488 ft | 190 kts | 173° |
| 2026-05-05 01:29 | 46.73401 | -119.21949 | 5484 ft | 191 kts | 173° |
| 2026-05-05 01:29 | 46.72088 | -119.21702 | 5486 ft | 190 kts | 172° |
| 2026-05-05 01:29 | 46.70768 | -119.21467 | 5485 ft | 191 kts | 172° |
| 2026-05-05 01:30 | 46.69458 | -119.21231 | 5485 ft | 190 kts | 173° |
| 2026-05-05 01:30 | 46.68155 | -119.21002 | 5486 ft | 188 kts | 173° |
| 2026-05-05 01:30 | 46.66859 | -119.20767 | 5488 ft | 189 kts | 172° |
| 2026-05-05 01:30 | 46.65559 | -119.20537 | 5487 ft | 187 kts | 172° |
| 2026-05-05 01:31 | 46.64267 | -119.20302 | 5483 ft | 187 kts | 172° |
| 2026-05-05 01:31 | 46.62979 | -119.20065 | 5486 ft | 187 kts | 172° |
| 2026-05-05 01:31 | 46.61693 | -119.19831 | 5487 ft | 186 kts | 173° |
| 2026-05-05 01:31 | 46.60405 | -119.19577 | 5492 ft | 187 kts | 172° |
| 2026-05-05 01:32 | 46.59117 | -119.19334 | 5486 ft | 186 kts | 172° |
| 2026-05-05 01:32 | 46.57829 | -119.19094 | 5484 ft | 187 kts | 172° |
| 2026-05-05 01:32 | 46.56543 | -119.18854 | 5484 ft | 187 kts | 173° |
| 2026-05-05 01:32 | 46.55256 | -119.18608 | 5494 ft | 187 kts | 172° |
| 2026-05-05 01:33 | 46.53969 | -119.18348 | 5488 ft | 187 kts | 172° |
| 2026-05-05 01:33 | 46.52679 | -119.18086 | 5483 ft | 187 kts | 172° |
| 2026-05-05 01:33 | 46.51369 | -119.17817 | 5361 ft | 192 kts | 172° |
| 2026-05-05 01:33 | 46.50036 | -119.17548 | 5242 ft | 194 kts | 172° |
| 2026-05-05 01:34 | 46.48776 | -119.17297 | 5117 ft | 164 kts | 172° |
| 2026-05-05 01:34 | 46.47754 | -119.17094 | 4963 ft | 135 kts | 173° |
| 2026-05-05 01:34 | 46.47154 | -119.16973 | 4860 ft | 123 kts | 171° |
| 2026-05-05 01:34 | 46.46354 | -119.16821 | 4703 ft | 110 kts | 173° |
| 2026-05-05 01:35 | 46.45563 | -119.16656 | 4563 ft | 123 kts | 172° |
| 2026-05-05 01:35 | 46.44689 | -119.16478 | 4453 ft | 129 kts | 172° |
| 2026-05-05 01:35 | 46.43802 | -119.16285 | 4315 ft | 130 kts | 172° |
| 2026-05-05 01:35 | 46.42877 | -119.16069 | 4086 ft | 139 kts | 164° |
| 2026-05-05 01:36 | 46.41963 | -119.15670 | 3858 ft | 137 kts | 162° |
| 2026-05-05 01:36 | 46.41051 | -119.15262 | 3626 ft | 136 kts | 162° |
| 2026-05-05 01:36 | 46.40154 | -119.14870 | 3380 ft | 133 kts | 162° |
| 2026-05-05 01:36 | 46.39270 | -119.14488 | 3143 ft | 132 kts | 166° |
| 2026-05-05 01:37 | 46.38371 | -119.14218 | 2892 ft | 131 kts | 167° |
| 2026-05-05 01:37 | 46.37482 | -119.13945 | 2651 ft | 130 kts | 168° |
| 2026-05-05 01:37 | 46.36603 | -119.13675 | 2407 ft | 129 kts | 166° |
| 2026-05-05 01:37 | 46.35724 | -119.13411 | 2168 ft | 129 kts | 167° |
| 2026-05-05 01:38 | 46.34854 | -119.13138 | 1922 ft | 128 kts | 167° |
| 2026-05-05 01:38 | 46.33981 | -119.12901 | 1671 ft | 127 kts | 172° |
| 2026-05-05 01:38 | 46.33109 | -119.12772 | 1429 ft | 124 kts | 173° |
| 2026-05-05 01:38 | 46.32294 | -119.12633 | 1400 ft | 114 kts | 172° |
| 2026-05-05 01:39 | 46.31514 | -119.12502 | 1392 ft | 109 kts | 173° |
| 2026-05-05 01:39 | 46.30776 | -119.12416 | 1400 ft | 103 kts | 180° |
| 2026-05-05 01:39 | 46.30079 | -119.12406 | 1391 ft | 96 kts | 179° |
| 2026-05-05 01:39 | 46.29442 | -119.12392 | 1372 ft | 89 kts | 179° |
| 2026-05-05 01:40 | 46.28851 | -119.12357 | 1380 ft | 82 kts | 161° |
| 2026-05-05 01:40 | 46.28396 | -119.11764 | 1442 ft | 97 kts | 135° |
| 2026-05-05 01:40 | 46.27856 | -119.11069 | 1415 ft | 106 kts | 134° |
| 2026-05-05 01:40 | 46.27303 | -119.10317 | 1411 ft | 111 kts | 134° |
| 2026-05-05 01:41 | 46.26730 | -119.09536 | 1411 ft | 116 kts | 133° |
| 2026-05-05 01:41 | 46.26213 | -119.08851 | 1333 ft | 91 kts | 134° |
| 2026-05-05 01:41 | 46.25773 | -119.08258 | 1177 ft | 85 kts | 137° |
| 2026-05-05 01:41 | 46.25227 | -119.08175 | 1020 ft | 92 kts | 222° |
| 2026-05-05 01:42 | 46.25019 | -119.09011 | 879 ft | 98 kts | 283° |
| 2026-05-05 01:42 | 46.25218 | -119.09765 | 659 ft | 73 kts | 309° |
| 2026-05-05 01:42 | 46.25617 | -119.10386 | 501 ft | 89 kts | 318° |
| 2026-05-05 01:42 | 46.25995 | -119.10904 | 412 ft | 69 kts | 314° |
| 2026-05-05 01:43 | 46.26274 | -119.11298 | 405 ft | 41 kts | 319° |
| 2026-05-05 01:43 | 46.26559 | -119.11695 | 413 ft | 86 kts | 316° |
| 2026-05-05 01:43 | 46.26991 | -119.12311 | 733 ft | 89 kts | 321° |
| 2026-05-05 01:43 | 46.27473 | -119.13059 | 886 ft | 109 kts | 313° |
| 2026-05-05 01:44 | 46.28113 | -119.13629 | 1120 ft | 115 kts | 351° |
| 2026-05-05 01:44 | 46.28912 | -119.13485 | 1329 ft | 120 kts | 24° |
| 2026-05-05 01:44 | 46.29621 | -119.12855 | 1533 ft | 120 kts | 33° |
| 2026-05-05 01:44 | 46.30336 | -119.12312 | 1731 ft | 115 kts | 1° |
| 2026-05-05 01:45 | 46.31128 | -119.12471 | 1934 ft | 117 kts | 352° |
| 2026-05-05 01:45 | 46.31946 | -119.12636 | 2135 ft | 121 kts | 353° |
| 2026-05-05 01:45 | 46.32785 | -119.12823 | 2340 ft | 123 kts | 353° |
| 2026-05-05 01:45 | 46.33627 | -119.13005 | 2535 ft | 121 kts | 352° |
| 2026-05-05 01:46 | 46.34456 | -119.13181 | 2723 ft | 119 kts | 353° |
| 2026-05-05 01:46 | 46.35264 | -119.13359 | 2918 ft | 117 kts | 352° |
| 2026-05-05 01:46 | 46.36065 | -119.13513 | 3107 ft | 116 kts | 351° |
| 2026-05-05 01:46 | 46.36860 | -119.13640 | 3341 ft | 115 kts | 355° |
| 2026-05-05 01:47 | 46.37668 | -119.13769 | 3519 ft | 117 kts | 350° |
| 2026-05-05 01:47 | 46.38479 | -119.13953 | 3710 ft | 117 kts | 352° |
| 2026-05-05 01:47 | 46.39278 | -119.14115 | 3896 ft | 115 kts | 351° |
| 2026-05-05 01:47 | 46.40072 | -119.14262 | 4096 ft | 116 kts | 352° |
| 2026-05-05 01:48 | 46.40875 | -119.14416 | 4283 ft | 116 kts | 352° |
| 2026-05-05 01:48 | 46.41671 | -119.14569 | 4472 ft | 115 kts | 352° |
| 2026-05-05 01:48 | 46.42507 | -119.14736 | 4490 ft | 127 kts | 352° |
| 2026-05-05 01:48 | 46.43402 | -119.14930 | 4502 ft | 132 kts | 351° |
| 2026-05-05 01:49 | 46.44325 | -119.15160 | 4500 ft | 137 kts | 350° |
| 2026-05-05 01:49 | 46.45260 | -119.15395 | 4498 ft | 137 kts | 349° |
| 2026-05-05 01:49 | 46.46195 | -119.15632 | 4500 ft | 136 kts | 350° |
| 2026-05-05 01:49 | 46.47125 | -119.15875 | 4502 ft | 136 kts | 349° |
| 2026-05-05 01:50 | 46.48062 | -119.16115 | 4496 ft | 138 kts | 350° |
| 2026-05-05 01:50 | 46.49011 | -119.16331 | 4496 ft | 139 kts | 351° |
| 2026-05-05 01:50 | 46.49987 | -119.16553 | 4496 ft | 145 kts | 351° |
| 2026-05-05 01:50 | 46.50990 | -119.16771 | 4499 ft | 147 kts | 351° |
| 2026-05-05 01:51 | 46.52008 | -119.16996 | 4498 ft | 150 kts | 351° |
| 2026-05-05 01:51 | 46.53041 | -119.17220 | 4496 ft | 150 kts | 352° |
| 2026-05-05 01:51 | 46.54069 | -119.17448 | 4497 ft | 150 kts | 351° |
| 2026-05-05 01:51 | 46.55097 | -119.17671 | 4496 ft | 149 kts | 351° |
| 2026-05-05 01:52 | 46.56129 | -119.17901 | 4498 ft | 151 kts | 351° |
| 2026-05-05 01:52 | 46.57162 | -119.18144 | 4482 ft | 149 kts | 351° |
| 2026-05-05 01:52 | 46.58183 | -119.18389 | 4483 ft | 148 kts | 352° |
| 2026-05-05 01:52 | 46.59223 | -119.18645 | 4489 ft | 153 kts | 350° |
| 2026-05-05 01:53 | 46.60299 | -119.18899 | 4499 ft | 160 kts | 351° |
| 2026-05-05 01:53 | 46.61410 | -119.19159 | 4497 ft | 164 kts | 351° |
| 2026-05-05 01:53 | 46.62542 | -119.19435 | 4499 ft | 166 kts | 351° |
| 2026-05-05 01:53 | 46.63685 | -119.19719 | 4496 ft | 167 kts | 351° |
| 2026-05-05 01:54 | 46.64822 | -119.20002 | 4499 ft | 165 kts | 351° |
| 2026-05-05 01:54 | 46.65961 | -119.20285 | 4496 ft | 167 kts | 352° |
| 2026-05-05 01:54 | 46.67105 | -119.20580 | 4494 ft | 168 kts | 351° |
| 2026-05-05 01:54 | 46.68260 | -119.20865 | 4494 ft | 168 kts | 351° |
| 2026-05-05 01:55 | 46.69409 | -119.21160 | 4496 ft | 167 kts | 351° |
| 2026-05-05 01:55 | 46.70555 | -119.21455 | 4494 ft | 167 kts | 351° |
| 2026-05-05 01:55 | 46.71693 | -119.21741 | 4500 ft | 166 kts | 352° |
| 2026-05-05 01:55 | 46.72838 | -119.22029 | 4471 ft | 168 kts | 350° |
| 2026-05-05 01:56 | 46.73995 | -119.22266 | 4455 ft | 167 kts | 354° |
| 2026-05-05 01:56 | 46.75151 | -119.22420 | 4455 ft | 166 kts | 355° |
| 2026-05-05 01:56 | 46.76303 | -119.22570 | 4453 ft | 166 kts | 355° |
| 2026-05-05 01:56 | 46.77466 | -119.22718 | 4452 ft | 165 kts | 355° |
| 2026-05-05 01:57 | 46.78593 | -119.22870 | 4449 ft | 165 kts | 356° |
| 2026-05-05 01:57 | 46.79753 | -119.23040 | 4461 ft | 166 kts | 355° |
| 2026-05-05 01:57 | 46.80906 | -119.23210 | 4457 ft | 167 kts | 355° |
| 2026-05-05 01:57 | 46.82063 | -119.23388 | 4456 ft | 168 kts | 355° |
| 2026-05-05 01:58 | 46.83223 | -119.23573 | 4458 ft | 168 kts | 354° |
| 2026-05-05 01:58 | 46.84390 | -119.23755 | 4456 ft | 168 kts | 355° |
| 2026-05-05 01:58 | 46.85548 | -119.23938 | 4457 ft | 166 kts | 355° |
| 2026-05-05 01:58 | 46.86698 | -119.24118 | 4453 ft | 166 kts | 355° |
| 2026-05-05 01:59 | 46.87851 | -119.24312 | 4454 ft | 167 kts | 353° |
| 2026-05-05 01:59 | 46.88988 | -119.24603 | 4454 ft | 165 kts | 351° |
| 2026-05-05 01:59 | 46.90126 | -119.24895 | 4456 ft | 166 kts | 351° |
| 2026-05-05 01:59 | 46.91268 | -119.25182 | 4457 ft | 167 kts | 351° |
| 2026-05-05 02:00 | 46.92413 | -119.25483 | 4457 ft | 168 kts | 351° |
| 2026-05-05 02:00 | 46.93563 | -119.25782 | 4452 ft | 167 kts | 352° |
| 2026-05-05 02:00 | 46.94714 | -119.26077 | 4457 ft | 168 kts | 352° |
| 2026-05-05 02:00 | 46.95868 | -119.26380 | 4454 ft | 168 kts | 351° |
| 2026-05-05 02:01 | 46.97022 | -119.26685 | 4456 ft | 169 kts | 351° |
| 2026-05-05 02:01 | 46.98180 | -119.26987 | 4451 ft | 168 kts | 351° |
| 2026-05-05 02:01 | 46.99327 | -119.27292 | 4435 ft | 168 kts | 351° |
| 2026-05-05 02:01 | 47.00527 | -119.27587 | 4176 ft | 180 kts | 354° |
| 2026-05-05 02:02 | 47.01743 | -119.27701 | 3983 ft | 163 kts | 359° |
| 2026-05-05 02:02 | 47.02811 | -119.27762 | 3871 ft | 146 kts | 359° |
| 2026-05-05 02:02 | 47.03792 | -119.27817 | 3739 ft | 138 kts | 359° |
| 2026-05-05 02:02 | 47.04732 | -119.27882 | 3601 ft | 133 kts | 359° |
| 2026-05-05 02:03 | 47.05643 | -119.27942 | 3472 ft | 129 kts | 359° |
| 2026-05-05 02:03 | 47.06547 | -119.27997 | 3349 ft | 131 kts | 359° |
| 2026-05-05 02:03 | 47.07457 | -119.28051 | 3229 ft | 130 kts | 359° |
| 2026-05-05 02:03 | 47.08363 | -119.28106 | 3104 ft | 130 kts | 359° |
| 2026-05-05 02:04 | 47.08971 | -119.28142 | 3025 ft | 130 kts | 359° |
| 2026-05-05 02:04 | 47.09871 | -119.28189 | 2903 ft | 130 kts | 359° |
| 2026-05-05 02:04 | 47.10771 | -119.28254 | 2775 ft | 129 kts | 358° |
| 2026-05-05 02:04 | 47.11659 | -119.28325 | 2683 ft | 127 kts | 356° |
| 2026-05-05 02:05 | 47.12529 | -119.28560 | 2559 ft | 127 kts | 351° |
| 2026-05-05 02:05 | 47.13393 | -119.28855 | 2441 ft | 127 kts | 350° |
| 2026-05-05 02:05 | 47.14227 | -119.29133 | 2272 ft | 113 kts | 350° |
| 2026-05-05 02:05 | 47.14944 | -119.29377 | 2051 ft | 97 kts | 352° |
| 2026-05-05 02:06 | 47.15620 | -119.29556 | 1984 ft | 96 kts | 349° |
| 2026-05-05 02:06 | 47.16187 | -119.29759 | 1831 ft | 79 kts | 349° |
| 2026-05-05 02:06 | 47.16745 | -119.29971 | 1727 ft | 86 kts | 346° |
| 2026-05-05 02:06 | 47.17329 | -119.30220 | 1627 ft | 83 kts | 345° |
| 2026-05-05 02:07 | 47.17851 | -119.30442 | 1509 ft | 76 kts | 349° |
| 2026-05-05 02:07 | 47.18350 | -119.30667 | 1388 ft | 75 kts | 343° |
| 2026-05-05 02:07 | 47.18859 | -119.30910 | 1255 ft | 76 kts | 347° |
| 2026-05-05 02:07 | 47.19318 | -119.31133 | 1168 ft | 53 kts | 347° |
| 2026-05-05 02:08 | 47.19489 | -119.31229 | 1165 ft | 13 kts | 337° |
| 2026-05-05 02:08 | 47.19540 | -119.31245 | 1165 ft | 7 kts | 53° |
| 2026-05-05 02:08 | 47.19464 | -119.31184 | 1165 ft | 22 kts | 161° |
| 2026-05-05 02:08 | 47.19305 | -119.31112 | 1166 ft | 29 kts | 161° |
| 2026-05-05 02:09 | 47.19172 | -119.31118 | 1167 ft | 13 kts | 237° |
| 2026-05-05 02:09 | 47.19160 | -119.31241 | 1166 ft | 15 kts | 271° |
| 2026-05-05 02:09 | 47.19161 | -119.31380 | 1166 ft | 12 kts | 270° |
| 2026-05-05 02:09 | 47.19160 | -119.31510 | 1167 ft | 14 kts | 270° |
| 2026-05-05 02:10 | 47.19161 | -119.31665 | 1167 ft | 16 kts | 270° |
| 2026-05-05 02:10 | 47.19161 | -119.31832 | 1167 ft | 17 kts | 271° |
| 2026-05-05 02:10 | 47.19161 | -119.32017 | 1168 ft | 18 kts | 270° |
| 2026-05-05 02:10 | 47.19160 | -119.32208 | 1168 ft | 19 kts | 269° |
| 2026-05-05 02:11 | 47.19160 | -119.32406 | 1169 ft | 20 kts | 270° |
| 2026-05-05 02:11 | 47.19161 | -119.32609 | 1169 ft | 20 kts | 270° |
| 2026-05-05 02:11 | 47.19161 | -119.32818 | 1168 ft | 21 kts | 270° |
| 2026-05-05 02:11 | 47.19161 | -119.33031 | 1168 ft | 21 kts | 274° |
| 2026-05-05 02:12 | 47.19126 | -119.33163 | 1168 ft | 12 kts | 184° |
| 2026-05-05 02:12 | 47.19008 | -119.33237 | 1169 ft | 15 kts | 277° |
| 2026-05-05 02:12 | 47.19014 | -119.33341 | 1165 ft | 3 kts | 298° |
| 2026-05-05 02:13 | 47.19031 | -119.33346 | 1168 ft | 0 kts | 359° |